createdAt,value
2022-09-26T00:00:00.785Z,100.00
2022-09-26T00:03:02.402Z,100.00
2022-09-26T00:06:06.200Z,100.00
2022-09-26T00:09:07.731Z,100.00
2022-09-26T00:12:09.120Z,100.00
2022-09-26T00:15:11.344Z,100.00
2022-09-26T00:18:12.760Z,100.00
2022-09-26T00:21:14.890Z,100.00
2022-09-26T00:24:17.051Z,100.00
2022-09-26T00:27:19.472Z,100.00
2022-09-26T00:30:20.885Z,100.00
2022-09-26T00:33:24.038Z,100.00
2022-09-26T00:36:36.887Z,100.00
2022-09-26T00:39:39.314Z,100.00
2022-09-26T00:42:40.681Z,100.00
2022-09-26T00:45:42.122Z,100.00
2022-09-26T00:48:46.882Z,100.00
2022-09-26T00:51:58.659Z,100.00
2022-09-26T00:55:03.105Z,100.00
2022-09-26T00:58:34.436Z,100.00
2022-09-26T01:01:36.042Z,100.00
2022-09-26T01:04:40.358Z,100.00
2022-09-26T01:07:41.964Z,100.00
2022-09-26T01:10:46.030Z,100.00
2022-09-26T01:13:47.984Z,100.00
2022-09-26T01:16:51.310Z,100.00
2022-09-26T01:20:09.408Z,100.00
2022-09-26T01:23:55.230Z,100.00
2022-09-26T01:27:15.270Z,100.00
2022-09-26T01:30:26.454Z,100.00
2022-09-26T01:33:54.041Z,100.00
2022-09-26T01:37:08.573Z,100.00
2022-09-26T01:40:21.989Z,100.00
2022-09-26T01:43:49.354Z,100.00
2022-09-26T01:46:57.634Z,100.00
2022-09-26T01:50:06.958Z,100.00
2022-09-26T01:53:16.115Z,100.00
2022-09-26T01:56:25.249Z,100.00
2022-09-26T01:59:32.123Z,100.00
2022-09-26T02:02:42.485Z,100.00
2022-09-26T02:06:03.879Z,100.00
2022-09-26T02:09:12.088Z,100.00
2022-09-26T02:12:21.461Z,100.00
2022-09-26T02:15:26.496Z,100.00
2022-09-26T02:18:55.382Z,100.00
2022-09-26T02:21:58.755Z,100.00
2022-09-26T02:25:01.552Z,100.00
2022-09-26T02:28:04.683Z,100.00
2022-09-26T02:31:08.318Z,100.00
2022-09-26T02:34:09.870Z,100.00
2022-09-26T02:37:13.319Z,100.00
2022-09-26T02:40:14.828Z,100.00
2022-09-26T02:43:54.726Z,100.00
2022-09-26T02:47:13.316Z,100.00
2022-09-26T02:50:37.394Z,100.00
2022-09-26T02:53:59.153Z,100.00
2022-09-26T02:57:34.729Z,100.00
2022-09-26T03:00:58.846Z,100.00
2022-09-26T03:04:44.337Z,100.00
2022-09-26T03:07:58.100Z,100.00
2022-09-26T03:11:05.265Z,100.00
2022-09-26T03:14:09.037Z,100.00
2022-09-26T03:17:10.647Z,100.00
2022-09-26T03:20:16.049Z,100.00
2022-09-26T03:23:21.872Z,100.00
2022-09-26T03:26:26.379Z,100.00
2022-09-26T03:29:32.833Z,100.00
2022-09-26T03:32:35.086Z,100.00
2022-09-26T03:35:36.815Z,100.00
2022-09-26T03:38:38.674Z,100.00
2022-09-26T03:41:51.900Z,100.00
2022-09-26T03:45:07.709Z,100.00
2022-09-26T03:48:32.781Z,100.00
2022-09-26T03:51:34.437Z,100.00
2022-09-26T03:54:35.816Z,100.00
2022-09-26T03:57:37.177Z,100.00
2022-09-26T04:00:52.040Z,100.00
2022-09-26T04:03:53.858Z,100.00
2022-09-26T04:06:55.690Z,100.00
2022-09-26T04:09:57.094Z,100.00
2022-09-26T04:12:58.822Z,100.00
2022-09-26T04:16:01.191Z,100.00
2022-09-26T04:19:02.838Z,100.00
2022-09-26T04:22:04.961Z,100.00
2022-09-26T04:25:10.091Z,100.00
2022-09-26T04:28:12.173Z,100.00
2022-09-26T04:31:14.900Z,100.00
2022-09-26T04:34:27.259Z,100.00
2022-09-26T04:37:29.263Z,100.00
2022-09-26T04:40:31.433Z,100.00
2022-09-26T04:43:42.450Z,100.00
2022-09-26T04:46:47.925Z,100.00
2022-09-26T04:49:49.809Z,100.00
2022-09-26T04:52:52.887Z,100.00
2022-09-26T04:55:54.785Z,100.00
2022-09-26T04:58:57.697Z,100.00
2022-09-26T05:02:03.454Z,100.00
2022-09-26T05:05:11.137Z,100.00
2022-09-26T05:08:17.203Z,100.00
2022-09-26T05:11:19.900Z,100.00
2022-09-26T05:14:21.413Z,100.00
2022-09-26T05:17:24.288Z,100.00
2022-09-26T05:20:31.576Z,100.00
2022-09-26T05:23:55.830Z,100.00
2022-09-26T05:26:57.854Z,100.00
2022-09-26T05:29:59.425Z,100.00
2022-09-26T05:33:01.873Z,100.00
2022-09-26T05:36:04.417Z,100.00
2022-09-26T05:39:26.236Z,100.00
2022-09-26T05:42:28.074Z,100.00
2022-09-26T05:45:31.125Z,100.00
2022-09-26T05:48:35.291Z,100.00
2022-09-26T05:51:47.340Z,100.00
2022-09-26T05:54:52.247Z,100.00
2022-09-26T05:58:18.514Z,100.00
2022-09-26T06:01:38.707Z,100.00
2022-09-26T06:04:51.631Z,100.00
2022-09-26T06:08:11.594Z,100.00
2022-09-26T06:11:22.510Z,100.00
2022-09-26T06:14:26.509Z,100.00
2022-09-26T06:17:28.466Z,100.00
2022-09-26T06:20:33.704Z,100.00
2022-09-26T06:23:36.133Z,100.00
2022-09-26T06:26:39.274Z,100.00
2022-09-26T06:29:40.814Z,100.00
2022-09-26T06:32:42.303Z,100.00
2022-09-26T06:36:08.776Z,100.00
2022-09-26T06:39:11.704Z,100.00
2022-09-26T06:42:14.266Z,100.00
2022-09-26T06:45:34.618Z,100.00
2022-09-26T06:48:46.551Z,100.00
2022-09-26T06:51:56.251Z,100.00
2022-09-26T06:54:57.760Z,100.00
2022-09-26T06:57:59.226Z,100.00
2022-09-26T07:01:04.394Z,100.00
2022-09-26T07:04:27.199Z,100.00
2022-09-26T07:07:55.089Z,100.00
2022-09-26T07:11:27.597Z,100.00
2022-09-26T07:14:23.201Z,100.00
2022-09-26T07:17:30.070Z,100.00
2022-09-26T07:20:57.438Z,100.00
2022-09-26T07:24:14.204Z,100.00
2022-09-26T07:27:17.854Z,100.00
2022-09-26T07:30:20.991Z,100.00
2022-09-26T07:33:33.948Z,100.00
2022-09-26T07:36:40.700Z,100.00
2022-09-26T07:39:43.411Z,100.00
2022-09-26T07:43:03.951Z,100.00
2022-09-26T07:46:25.604Z,100.00
2022-09-26T07:49:49.351Z,100.00
2022-09-26T07:53:00.362Z,100.00
2022-09-26T07:56:09.935Z,100.00
2022-09-26T07:59:29.946Z,100.00
2022-09-26T08:02:50.791Z,100.00
2022-09-26T08:05:56.658Z,100.00
2022-09-26T08:08:58.160Z,100.00
2022-09-26T08:12:18.121Z,100.00
2022-09-26T08:15:24.045Z,100.00
2022-09-26T08:18:35.830Z,100.00
2022-09-26T08:21:38.102Z,100.00
2022-09-26T08:24:40.832Z,100.00
2022-09-26T08:28:07.381Z,100.00
2022-09-26T08:31:08.844Z,100.00
2022-09-26T08:34:10.674Z,100.00
2022-09-26T08:37:14.536Z,100.00
2022-09-26T08:41:07.061Z,100.00
2022-09-26T08:44:26.243Z,100.00
2022-09-26T08:48:19.339Z,100.00
2022-09-26T08:51:42.275Z,99.30
2022-09-26T08:54:46.876Z,97.97
2022-09-26T08:57:58.749Z,97.75
2022-09-26T09:01:03.275Z,97.51
2022-09-26T09:04:19.241Z,96.95
2022-09-26T09:07:25.926Z,95.40
2022-09-26T09:10:53.408Z,92.29
2022-09-26T09:14:16.730Z,87.57
2022-09-26T09:17:57.974Z,86.30
2022-09-26T09:21:41.952Z,85.37
2022-09-26T09:25:09.658Z,86.97
2022-09-26T09:28:25.867Z,86.08
2022-09-26T09:31:32.227Z,87.25
2022-09-26T09:34:54.102Z,83.71
2022-09-26T09:38:27.184Z,84.92
2022-09-26T09:41:54.193Z,83.65
2022-09-26T09:45:03.905Z,85.83
2022-09-26T09:48:12.623Z,86.70
2022-09-26T09:51:19.235Z,86.15
2022-09-26T09:54:47.902Z,83.08
2022-09-26T09:58:29.935Z,80.50
2022-09-26T10:01:33.182Z,81.67
2022-09-26T10:04:44.288Z,79.52
2022-09-26T10:07:47.591Z,78.86
2022-09-26T10:11:30.438Z,80.01
2022-09-26T10:14:38.798Z,79.64
2022-09-26T10:17:56.073Z,81.51
2022-09-26T10:21:17.747Z,80.73
2022-09-26T10:24:38.683Z,80.02
2022-09-26T10:27:51.562Z,77.41
2022-09-26T10:30:59.981Z,79.78
2022-09-26T10:34:08.877Z,80.62
2022-09-26T10:37:24.193Z,78.02
2022-09-26T10:40:46.032Z,79.31
2022-09-26T10:43:54.456Z,80.28
2022-09-26T10:47:22.689Z,78.66
2022-09-26T10:50:50.253Z,79.66
2022-09-26T10:54:17.024Z,76.06
2022-09-26T10:57:51.997Z,77.60
2022-09-26T11:00:57.809Z,76.61
2022-09-26T11:04:39.719Z,74.85
2022-09-26T11:08:07.404Z,74.42
2022-09-26T11:11:36.154Z,70.24
2022-09-26T11:14:45.587Z,69.88
2022-09-26T11:17:52.419Z,72.09
2022-09-26T11:21:18.292Z,68.80
2022-09-26T11:24:30.811Z,69.85
2022-09-26T11:27:46.034Z,71.97
2022-09-26T11:30:58.705Z,70.84
2022-09-26T11:34:04.442Z,70.48
2022-09-26T11:37:43.211Z,69.58
2022-09-26T11:41:36.345Z,70.37
2022-09-26T11:44:50.606Z,81.40
2022-09-26T11:48:43.402Z,94.88
2022-09-26T11:53:04.118Z,95.94
2022-09-26T11:56:24.920Z,96.72
2022-09-26T11:59:52.633Z,98.88
2022-09-26T12:03:06.477Z,100.00
2022-09-26T12:06:34.881Z,98.41
2022-09-26T12:10:03.485Z,100.00
2022-09-26T12:13:17.119Z,90.63
2022-09-26T12:16:24.504Z,95.25
2022-09-26T12:19:38.508Z,90.07
2022-09-26T12:22:48.978Z,87.63
2022-09-26T12:26:02.453Z,80.60
2022-09-26T12:29:33.810Z,85.72
2022-09-26T12:32:48.987Z,91.82
2022-09-26T12:36:09.177Z,90.51
2022-09-26T12:39:25.932Z,90.56
2022-09-26T12:43:05.661Z,91.19
2022-09-26T12:46:27.362Z,91.36
2022-09-26T12:49:47.534Z,91.65
2022-09-26T12:52:54.906Z,91.00
2022-09-26T12:56:09.196Z,90.14
2022-09-26T12:59:13.415Z,87.47
2022-09-26T13:02:42.705Z,88.36
2022-09-26T13:05:55.838Z,86.61
2022-09-26T13:09:23.549Z,84.98
2022-09-26T13:12:38.846Z,84.74
2022-09-26T13:15:47.999Z,83.88
2022-09-26T13:18:56.221Z,84.44
2022-09-26T13:22:01.649Z,85.41
2022-09-26T13:25:18.738Z,86.65
2022-09-26T13:28:33.700Z,85.71
2022-09-26T13:31:43.136Z,88.42
2022-09-26T13:34:50.272Z,95.16
2022-09-26T13:38:22.686Z,93.99
2022-09-26T13:41:48.274Z,94.24
2022-09-26T13:45:08.472Z,91.71
2022-09-26T13:48:29.013Z,96.20
2022-09-26T13:51:47.015Z,92.19
2022-09-26T13:54:59.019Z,95.19
2022-09-26T13:58:10.067Z,94.02
2022-09-26T14:01:26.431Z,98.07
2022-09-26T14:04:36.647Z,98.41
2022-09-26T14:07:59.745Z,97.63
2022-09-26T14:11:14.721Z,100.00
2022-09-26T14:14:17.655Z,100.00
2022-09-26T14:17:44.130Z,100.00
2022-09-26T14:20:56.046Z,100.00
2022-09-26T14:24:31.442Z,100.00
2022-09-26T14:27:40.780Z,100.00
2022-09-26T14:31:22.070Z,100.00
2022-09-26T14:34:28.058Z,100.00
2022-09-26T14:37:40.734Z,100.00
2022-09-26T14:40:55.666Z,100.00
2022-09-26T14:44:15.801Z,100.00
2022-09-26T14:47:17.693Z,100.00
2022-09-26T14:50:24.750Z,100.00
2022-09-26T14:53:41.261Z,100.00
2022-09-26T14:56:47.569Z,100.00
2022-09-26T14:59:49.710Z,100.00
2022-09-26T15:03:00.197Z,100.00
2022-09-26T15:06:05.567Z,100.00
2022-09-26T15:09:22.052Z,100.00
2022-09-26T15:12:47.947Z,100.00
2022-09-26T15:16:10.547Z,100.00
2022-09-26T15:19:16.139Z,100.00
2022-09-26T15:22:20.470Z,100.00
2022-09-26T15:25:25.065Z,100.00
2022-09-26T15:28:26.609Z,100.00
2022-09-26T15:31:43.289Z,100.00
2022-09-26T15:34:46.750Z,100.00
2022-09-26T15:37:48.242Z,100.00
2022-09-26T15:41:01.165Z,100.00
2022-09-26T15:44:03.905Z,100.00
2022-09-26T15:47:26.420Z,100.00
2022-09-26T15:50:44.112Z,100.00
2022-09-26T15:53:50.525Z,100.00
2022-09-26T15:56:53.356Z,100.00
2022-09-26T15:59:54.861Z,100.00
2022-09-26T16:02:56.422Z,100.00
2022-09-26T16:05:57.915Z,100.00
2022-09-26T16:09:12.129Z,100.00
2022-09-26T16:12:16.655Z,100.00
2022-09-26T16:15:21.578Z,100.00
2022-09-26T16:18:27.028Z,100.00
2022-09-26T16:21:36.411Z,100.00
2022-09-26T16:24:37.834Z,100.00
2022-09-26T16:27:39.198Z,100.00
2022-09-26T16:30:43.733Z,100.00
2022-09-26T16:33:50.858Z,100.00
2022-09-26T16:36:53.028Z,100.00
2022-09-26T16:39:56.637Z,100.00
2022-09-26T16:43:14.691Z,100.00
2022-09-26T16:46:18.299Z,100.00
2022-09-26T16:49:39.822Z,100.00
2022-09-26T16:52:42.698Z,100.00
2022-09-26T16:55:44.087Z,100.00
2022-09-26T16:58:55.365Z,100.00
2022-09-26T17:01:59.552Z,100.00
2022-09-26T17:05:00.972Z,100.00
2022-09-26T17:08:04.226Z,100.00
2022-09-26T17:11:15.135Z,100.00
2022-09-26T17:14:20.482Z,100.00
2022-09-26T17:17:25.622Z,100.00
2022-09-26T17:20:28.498Z,100.00
2022-09-26T17:23:40.616Z,100.00
2022-09-26T17:26:54.447Z,100.00
2022-09-26T17:30:00.227Z,100.00
2022-09-26T17:33:04.275Z,100.00
2022-09-26T17:36:10.599Z,100.00
2022-09-26T17:39:14.347Z,100.00
2022-09-26T17:42:17.082Z,100.00
2022-09-26T17:45:19.682Z,100.00
2022-09-26T17:48:33.287Z,100.00
2022-09-26T17:51:36.113Z,100.00
2022-09-26T17:54:42.477Z,100.00
2022-09-26T17:57:44.093Z,100.00
2022-09-26T18:00:49.200Z,100.00
2022-09-26T18:03:54.858Z,100.00
2022-09-26T18:07:00.975Z,100.00
2022-09-26T18:10:07.186Z,100.00
2022-09-26T18:13:14.221Z,100.00
2022-09-26T18:16:16.114Z,100.00
2022-09-26T18:19:20.858Z,100.00
2022-09-26T18:22:27.480Z,99.60
2022-09-26T18:25:28.876Z,98.90
2022-09-26T18:28:30.394Z,99.96
2022-09-26T18:31:36.087Z,99.43
2022-09-26T18:34:37.603Z,98.90
2022-09-26T18:37:38.973Z,99.98
2022-09-26T18:40:44.234Z,100.00
2022-09-26T18:43:51.921Z,100.00
2022-09-26T18:46:58.229Z,97.75
2022-09-26T18:50:02.490Z,98.21
2022-09-26T18:53:12.332Z,98.61
2022-09-26T18:56:32.461Z,100.00
2022-09-26T18:59:33.858Z,100.00
2022-09-26T19:02:38.371Z,100.00
2022-09-26T19:05:39.954Z,100.00
2022-09-26T19:08:46.762Z,100.00
2022-09-26T19:11:48.520Z,100.00
2022-09-26T19:14:49.885Z,100.00
2022-09-26T19:17:52.185Z,100.00
2022-09-26T19:20:53.995Z,100.00
2022-09-26T19:23:56.089Z,100.00
2022-09-26T19:27:03.641Z,100.00
2022-09-26T19:30:14.926Z,100.00
2022-09-26T19:33:16.321Z,100.00
2022-09-26T19:36:19.076Z,100.00
2022-09-26T19:39:20.986Z,100.00
2022-09-26T19:42:22.355Z,100.00
2022-09-26T19:45:24.806Z,100.00
2022-09-26T19:48:26.283Z,100.00
2022-09-26T19:51:28.177Z,100.00
2022-09-26T19:54:29.880Z,100.00
2022-09-26T19:57:31.302Z,100.00
2022-09-26T20:00:41.102Z,100.00
2022-09-26T20:03:43.757Z,100.00
2022-09-26T20:06:46.420Z,100.00
2022-09-26T20:09:47.858Z,100.00
2022-09-26T20:12:49.355Z,100.00
2022-09-26T20:15:50.985Z,100.00
2022-09-26T20:18:55.566Z,100.00
2022-09-26T20:21:59.895Z,100.00
2022-09-26T20:25:04.720Z,100.00
2022-09-26T20:28:06.087Z,100.00
2022-09-26T20:31:25.076Z,100.00
2022-09-26T20:34:26.827Z,100.00
2022-09-26T20:37:32.355Z,100.00
2022-09-26T20:40:35.136Z,100.00
2022-09-26T20:43:38.520Z,100.00
2022-09-26T20:46:48.732Z,100.00
2022-09-26T20:50:00.751Z,100.00
2022-09-26T20:53:02.184Z,100.00
2022-09-26T20:56:03.852Z,100.00
2022-09-26T20:59:05.336Z,100.00
2022-09-26T21:02:22.938Z,100.00
2022-09-26T21:05:27.326Z,100.00
2022-09-26T21:08:30.375Z,100.00
2022-09-26T21:11:31.777Z,100.00
2022-09-26T21:14:33.134Z,100.00
2022-09-26T21:17:34.493Z,100.00
2022-09-26T21:20:35.893Z,100.00
2022-09-26T21:23:58.778Z,100.00
2022-09-26T21:27:00.167Z,100.00
2022-09-26T21:30:01.682Z,100.00
2022-09-26T21:33:03.339Z,100.00
2022-09-26T21:36:04.854Z,100.00
2022-09-26T21:39:06.578Z,100.00
2022-09-26T21:42:08.060Z,100.00
2022-09-26T21:45:11.118Z,100.00
2022-09-26T21:48:13.906Z,100.00
2022-09-26T21:51:15.336Z,100.00
2022-09-26T21:54:26.574Z,100.00
2022-09-26T21:57:37.067Z,100.00
2022-09-26T22:00:38.929Z,100.00
2022-09-26T22:03:41.154Z,100.00
2022-09-26T22:06:42.566Z,100.00
2022-09-26T22:09:44.177Z,100.00
2022-09-26T22:12:45.667Z,100.00
2022-09-26T22:15:47.997Z,100.00
2022-09-26T22:18:49.418Z,100.00
2022-09-26T22:21:51.129Z,100.00
2022-09-26T22:24:53.854Z,100.00
2022-09-26T22:27:55.418Z,100.00
2022-09-26T22:31:04.773Z,100.00
2022-09-26T22:34:06.248Z,100.00
2022-09-26T22:37:07.622Z,100.00
2022-09-26T22:40:09.092Z,100.00
2022-09-26T22:43:10.902Z,100.00
2022-09-26T22:46:13.292Z,100.00
2022-09-26T22:49:14.891Z,100.00
2022-09-26T22:52:16.621Z,100.00
2022-09-26T22:55:18.761Z,100.00
2022-09-26T22:58:21.911Z,100.00
2022-09-26T23:01:25.557Z,100.00
2022-09-26T23:04:46.779Z,100.00
2022-09-26T23:07:48.196Z,100.00
2022-09-26T23:10:50.735Z,100.00
2022-09-26T23:13:52.589Z,100.00
2022-09-26T23:16:54.016Z,100.00
2022-09-26T23:19:55.446Z,100.00
2022-09-26T23:22:56.817Z,100.00
2022-09-26T23:25:58.207Z,100.00
2022-09-26T23:29:00.036Z,100.00
2022-09-26T23:32:01.528Z,100.00
2022-09-26T23:35:02.934Z,100.00
2022-09-26T23:38:05.363Z,100.00
2022-09-26T23:41:08.151Z,100.00
2022-09-26T23:44:09.797Z,100.00
2022-09-26T23:47:11.248Z,100.00
2022-09-26T23:50:12.639Z,100.00
2022-09-26T23:53:15.321Z,100.00
2022-09-26T23:56:16.898Z,100.00
2022-09-26T23:59:18.364Z,100.00
